首页
METAR-TAF:

METAR-TAF

机场 :

卡利亚里, 意大利

纬度: 39-15N, 经度: 009-04E, 海拔: 4米

当前天气观测

该预报发布于19分钟前的01:20 UTC
风速5节,风向北转西北
温度 8°C
湿度 93%
气压 1025 hPa
能见度10公里或以上
1500米以下无云,无积雨云

METAR: LIEE 070120Z 33005KT CAVOK 08/07 Q1025

时间: 03:39 (01:39 UTC)

预报

该预报发布于2小时和39分钟前的23:00 UTC
预报有效从07日的 00点(UTC)到 07日的 24点(UTC)
风速6节,风向北转西北
能见度10公里或以上
1500米以下无云,无积雨云
成为
从 07日的 09点(UTC)到 07日的 11点(UTC)
风速10节,风向南转南东
成为
从 07日的 17点(UTC)到 07日的 19点(UTC)
风速5节,风向多变

TAF: LIEE 062300Z 0700/0724 34006KT CAVOK BECMG 0709/0711 16010KT BECMG 0717/0719 VRB05KT

超过4000个机场的气象观测和天气预报(METAR&TAF报告)。

可查询的气象台以黄色和红色小点在地图上表示。

将鼠标移到小点上方,可查看气象台名称。

然后点击查看天气观测和预报。

如需切换地图:点击带黑十字的绿色按钮放大地图;点击带横线的绿色按钮缩小地图;或者点击绿色箭头查看邻近地区的地图。


METAR-TAF: